Time;durP1;ratioP1;P1;durP2;ratioP2;P2;SDS_P1;SDS_P2;PMS_P1;PMS_P2;Temp;Humidity;BMP_temperature;BMP_pressure;BME280_temperature;BME280_humidity;BME280_pressure;Samples;Min_cycle;Max_cycle;Signal;HPM_P1;HPM_P2
2023/10/13 08:22:35;;;;;;;5.77;4.10;;;;;;;30.89;43.85;98782.47;5109638;28;20548;-83
2023/10/13 08:25:33;;;;;;;6.27;4.20;;;;;;;30.95;42.78;98775.22;5108466;28;38693;-83
2023/10/13 08:28:45;;;;;;;6.27;4.30;;;;;;;31.75;40.24;98795.91;5108962;28;40817;-84
2023/10/13 08:30:53;;;;;;;4.77;3.57;;;;;;;31.96;40.76;98772.59;5091244;28;42851;-83
2023/10/13 08:33:26;;;;;;;7.07;4.10;;;;;;;32.28;40.82;98784.09;5107452;28;42472;-84
2023/10/13 08:36:17;;;;;;;5.47;3.88;;;;;;;32.95;39.65;98781.81;5107358;28;38812;-84
2023/10/13 08:38:51;;;;;;;5.20;3.30;;;;;;;33.47;38.18;98785.38;5089934;28;40781;-84
2023/10/13 08:41:31;;;;;;;6.47;3.65;;;;;;;34.19;36.67;98795.75;5089820;28;41788;-84
2023/10/13 08:44:09;;;;;;;4.05;3.65;;;;;;;35.07;34.35;98805.94;5124072;27;40867;-84
2023/10/13 08:47:05;;;;;;;5.10;3.20;;;;;;;36.03;33.21;98797.09;5124178;27;38571;-85
2023/10/13 08:49:40;;;;;;;3.15;2.78;;;;;;;37.57;30.68;98795.88;5089787;28;41805;-85
2023/10/13 08:55:37;;;;;;;4.63;3.30;;;;;;;40.39;27.24;98816.78;5071894;28;41285;-85
2023/10/13 08:58:03;;;;;;;4.07;3.53;;;;;;;41.20;25.40;98821.53;5107758;28;40988;-85
2023/10/13 09:03:29;;;;;;;3.78;2.92;;;;;;;40.11;25.75;98797.00;5110835;27;41855;-84
2023/10/13 09:06:03;;;;;;;3.95;3.15;;;;;;;40.01;26.30;98799.88;5096012;28;41308;-85
2023/10/13 09:08:44;;;;;;;8.52;3.72;;;;;;;39.78;25.78;98795.84;5090397;28;39388;-84
2023/10/13 09:11:12;;;;;;;4.70;3.22;;;;;;;38.95;26.34;98780.97;5106378;28;40176;-85
2023/10/13 09:13:44;;;;;;;5.00;3.10;;;;;;;38.12;27.61;98763.91;5090946;28;42033;-85
2023/10/13 09:16:17;;;;;;;4.57;3.50;;;;;;;37.03;28.46;98774.09;5106360;28;42270;-85
2023/10/13 09:18:47;;;;;;;4.43;3.42;;;;;;;35.90;29.09;98765.28;5104988;28;40990;-85
2023/10/13 09:26:51;;;;;;;3.67;3.10;;;;;;;32.95;32.22;98748.06;5107928;28;42176;-85
2023/10/13 09:29:18;;;;;;;5.30;3.80;;;;;;;32.16;33.58;98725.66;5139177;27;40128;-84
2023/10/13 09:31:48;;;;;;;4.63;3.27;;;;;;;31.62;34.03;98733.09;5088496;28;40969;-84
2023/10/13 09:34:29;;;;;;;9.03;4.43;;;;;;;31.04;34.74;98709.03;5108661;28;42078;-84
2023/10/13 09:36:59;;;;;;;5.07;3.60;;;;;;;30.75;35.40;98715.31;5075783;28;41145;-83
2023/10/13 09:39:41;;;;;;;5.03;3.53;;;;;;;30.65;34.78;98704.09;5126878;27;40450;-84
2023/10/13 09:42:10;;;;;;;3.83;3.13;;;;;;;30.88;35.05;98693.28;5092113;28;42445;-85
2023/10/13 09:44:40;;;;;;;4.40;3.87;;;;;;;31.45;33.39;98712.91;5093767;28;43852;-85
2023/10/13 09:47:17;;;;;;;6.10;3.73;;;;;;;31.82;32.81;98716.34;5092392;28;41608;-84
2023/10/13 09:49:47;;;;;;;5.10;4.37;;;;;;;31.91;33.45;98709.44;5092786;28;39327;-84
2023/10/13 09:52:19;;;;;;;4.03;3.37;;;;;;;32.22;32.61;98696.50;5109139;28;41898;-85
2023/10/13 09:55:02;;;;;;;4.57;3.73;;;;;;;33.41;32.40;98694.91;5090243;28;42772;-84
2023/10/13 09:57:44;;;;;;;6.90;3.08;;;;;;;35.10;29.37;98717.31;5090365;28;43055;-85
2023/10/13 10:00:45;;;;;;;4.68;3.20;;;;;;;35.58;28.36;98721.16;5091843;28;40657;-85
2023/10/13 10:03:29;;;;;;;5.53;3.53;;;;;;;35.74;27.75;98722.97;5074814;28;41964;-85
2023/10/13 10:06:03;;;;;;;3.53;3.00;;;;;;;36.80;27.83;98722.09;5092108;28;43023;-84
2023/10/13 10:08:34;;;;;;;6.97;3.15;;;;;;;37.22;25.95;98736.63;5074979;28;40975;-85
2023/10/13 10:11:16;;;;;;;4.18;3.35;;;;;;;37.27;26.16;98724.78;5092335;28;38934;-85
2023/10/13 10:13:57;;;;;;;6.95;3.72;;;;;;;37.30;26.35;98719.56;5090462;28;42431;-85
2023/10/13 10:16:36;;;;;;;5.60;3.30;;;;;;;37.53;25.93;98733.97;5076032;28;41793;-85
2023/10/13 10:19:07;;;;;;;4.03;3.15;;;;;;;37.47;25.38;98735.03;5090019;28;42396;-85
2023/10/13 10:21:35;;;;;;;4.30;3.33;;;;;;;36.72;26.07;98722.63;5092299;28;38887;-83
2023/10/13 10:24:08;;;;;;;5.10;3.35;;;;;;;36.35;25.82;98726.25;5092771;28;42525;-85
2023/10/13 10:26:35;;;;;;;4.75;3.30;;;;;;;36.19;26.50;98702.38;5076007;28;43150;-84
2023/10/13 10:29:14;;;;;;;3.65;3.33;;;;;;;35.93;27.03;98716.00;5092972;28;41285;-85
2023/10/13 10:31:45;;;;;;;6.20;3.25;;;;;;;35.37;27.24;98702.75;5074549;28;38982;-84
2023/10/13 10:34:14;;;;;;;5.00;3.70;;;;;;;34.88;27.57;98708.22;5074873;28;41138;-85
2023/10/13 10:36:46;;;;;;;5.70;3.72;;;;;;;34.11;27.99;98687.06;5108217;28;42614;-85
2023/10/13 10:39:15;;;;;;;4.10;3.72;;;;;;;34.06;28.57;98697.97;5074487;28;42870;-86
2023/10/13 10:41:51;;;;;;;5.82;3.75;;;;;;;33.86;28.82;98684.75;5125447;27;39878;-86
2023/10/13 10:44:33;;;;;;;5.28;3.47;;;;;;;33.75;28.36;98680.19;5073453;28;42163;-86
2023/10/13 10:47:11;;;;;;;4.07;3.10;;;;;;;33.13;29.35;98685.59;5091293;28;43564;-85
2023/10/13 10:49:40;;;;;;;4.53;3.80;;;;;;;32.46;30.02;98676.22;5088412;28;42279;-86
2023/10/13 10:52:18;;;;;;;5.93;3.37;;;;;;;31.88;30.59;98671.59;5091468;28;40347;-85
2023/10/13 10:54:51;;;;;;;5.47;3.70;;;;;;;32.19;30.75;98662.19;5089119;28;41834;-84
2023/10/13 10:57:19;;;;;;;5.30;3.60;;;;;;;32.71;30.50;98659.47;5091157;28;42159;-85
2023/10/13 11:00:09;;;;;;;5.10;3.70;;;;;;;32.87;30.47;98646.94;5125286;27;42130;-84
2023/10/13 11:02:36;;;;;;;7.67;3.67;;;;;;;33.46;29.80;98631.84;5092455;28;39347;-84
2023/10/13 11:05:06;;;;;;;4.83;4.00;;;;;;;34.03;28.88;98659.16;5074033;28;41332;-85
2023/10/13 11:07:34;;;;;;;5.05;3.13;;;;;;;35.04;28.21;98646.78;5090791;28;42898;-85
2023/10/13 11:10:17;;;;;;;3.65;3.25;;;;;;;36.45;27.45;98668.38;5073886;28;41128;-85
2023/10/13 11:12:55;;;;;;;6.13;3.55;;;;;;;37.65;26.19;98658.00;5091776;28;39149;-83
2023/10/13 11:15:33;;;;;;;4.07;3.35;;;;;;;37.95;24.39;98676.53;5074969;28;40777;-84
2023/10/13 11:18:05;;;;;;;5.00;3.17;;;;;;;37.48;25.41;98662.94;5108995;28;43789;-85
2023/10/13 11:20:43;;;;;;;3.60;3.28;;;;;;;36.51;25.27;98660.94;5091938;28;42290;-86
2023/10/13 11:23:12;;;;;;;4.22;3.17;;;;;;;35.33;25.76;98660.31;5091985;28;39949;-84
2023/10/13 11:25:43;;;;;;;4.63;3.13;;;;;;;34.24;27.13;98620.72;5074480;28;41231;-83
2023/10/13 11:28:17;;;;;;;4.50;3.00;;;;;;;33.92;27.23;98635.34;5087004;28;43687;-86
2023/10/13 11:30:49;;;;;;;6.97;3.67;;;;;;;33.63;27.56;98648.34;5090233;28;41142;-84
2023/10/13 11:33:19;;;;;;;5.17;3.30;;;;;;;33.33;27.90;98645.91;5121743;27;39960;-85
2023/10/13 11:35:55;;;;;;;4.50;3.10;;;;;;;33.30;28.43;98627.16;5124343;27;41530;-85
2023/10/13 11:38:26;;;;;;;8.20;3.30;;;;;;;33.17;28.23;98620.88;5121325;27;42780;-86
2023/10/13 11:41:11;;;;;;;4.50;3.50;;;;;;;34.72;26.94;98621.06;5090148;28;42361;-85
2023/10/13 11:49:31;;;;;;;4.60;3.03;;;;;;;41.42;20.48;98654.97;5041335;28;42622;-85
2023/10/13 11:52:10;;;;;;;4.30;3.25;;;;;;;40.26;21.70;98643.41;5123837;27;42315;-85
2023/10/13 11:54:41;;;;;;;3.67;3.13;;;;;;;38.91;22.52;98627.56;5073299;28;39039;-88
2023/10/13 11:57:09;;;;;;;4.68;3.13;;;;;;;37.89;23.13;98614.03;5073054;28;40916;-85
2023/10/13 11:59:44;;;;;;;4.47;3.80;;;;;;;37.12;23.22;98612.31;5124507;27;43816;-85
2023/10/13 12:04:59;;;;;;;4.25;3.63;;;;;;;35.63;24.96;98577.91;5088205;28;40121;-84
2023/10/13 12:07:45;;;;;;;5.45;3.45;;;;;;;35.25;25.47;98593.59;5073161;28;40477;-84
2023/10/13 12:10:33;;;;;;;5.18;3.60;;;;;;;34.83;25.97;98576.94;5089693;28;42017;-84
2023/10/13 12:13:05;;;;;;;4.43;3.30;;;;;;;34.53;26.86;98562.78;5090577;28;41241;-84
2023/10/13 12:15:48;;;;;;;4.97;3.00;;;;;;;34.32;26.78;98575.47;5090914;28;39166;-84
2023/10/13 12:18:19;;;;;;;3.70;2.93;;;;;;;33.91;27.28;98527.34;5093861;28;40812;-84
2023/10/13 12:20:46;;;;;;;5.60;3.33;;;;;;;34.16;27.36;98546.94;5084086;28;41828;-85
2023/10/13 12:23:20;;;;;;;6.53;3.70;;;;;;;34.27;27.04;98542.41;5095837;28;41524;-86
2023/10/13 12:25:59;;;;;;;5.47;3.33;;;;;;;34.63;26.80;98545.56;5122241;27;40206;-85
2023/10/13 12:28:28;;;;;;;5.33;3.50;;;;;;;35.47;26.33;98556.88;5122154;27;42483;-85
2023/10/13 12:30:58;;;;;;;6.15;3.78;;;;;;;36.22;26.04;98569.53;5073111;28;42761;-83
2023/10/13 12:33:36;;;;;;;7.28;3.65;;;;;;;36.83;24.75;98550.44;5072539;28;42746;-84
2023/10/13 12:36:06;;;;;;;4.63;3.08;;;;;;;37.81;23.94;98564.00;5106664;28;39199;-84
2023/10/13 12:38:50;;;;;;;4.30;3.33;;;;;;;39.73;22.69;98564.88;5089254;28;40938;-85
2023/10/13 12:49:52;;;;;;;5.63;2.97;;;;;;;42.89;18.89;98576.28;5072580;28;41989;-85
2023/10/13 12:52:20;;;;;;;4.43;3.20;;;;;;;43.29;18.66;98557.78;5072585;28;44259;-88
2023/10/13 12:54:58;;;;;;;5.75;3.30;;;;;;;43.45;18.94;98578.56;5089360;28;42033;-83
2023/10/13 12:57:26;;;;;;;5.38;3.28;;;;;;;43.55;18.97;98575.50;5086993;28;40037;-86
2023/10/13 12:59:54;;;;;;;6.35;2.97;;;;;;;42.99;18.78;98571.28;5089507;28;41954;-85
2023/10/13 13:02:24;;;;;;;5.88;3.30;;;;;;;43.26;18.81;98572.38;5072512;28;42059;-85
2023/10/13 13:04:56;;;;;;;3.20;2.75;;;;;;;43.40;18.53;98541.63;5106440;28;41661;-85
2023/10/13 13:07:29;;;;;;;3.85;3.00;;;;;;;43.79;18.43;98555.66;5087425;28;40443;-85
2023/10/13 13:09:59;;;;;;;4.88;3.35;;;;;;;44.10;18.19;98561.25;5076103;28;40663;-85
2023/10/13 13:12:28;;;;;;;4.80;3.15;;;;;;;44.27;18.35;98541.75;5092918;28;42267;-85
2023/10/13 13:14:55;;;;;;;3.88;3.13;;;;;;;44.49;18.35;98552.03;5077077;28;42555;-84
2023/10/13 13:17:23;;;;;;;4.40;3.13;;;;;;;44.14;17.40;98530.72;5077103;28;40306;-84
2023/10/13 13:19:51;;;;;;;3.35;2.83;;;;;;;44.22;18.03;98547.50;5076869;28;40767;-85
2023/10/13 13:22:20;;;;;;;3.75;3.20;;;;;;;44.14;17.83;98534.34;5109645;28;41919;-85
2023/10/13 13:24:48;;;;;;;3.38;2.55;;;;;;;44.02;17.90;98525.72;5092487;28;41962;-85
2023/10/13 13:27:19;;;;;;;4.25;3.25;;;;;;;44.07;18.44;98520.00;5092760;28;39836;-85
2023/10/13 13:29:47;;;;;;;3.40;3.10;;;;;;;43.83;18.14;98505.59;5089478;28;41255;-85
2023/10/13 13:32:18;;;;;;;4.43;3.35;;;;;;;43.70;18.20;98524.09;5091974;28;41487;-83
2023/10/13 13:34:54;;;;;;;3.55;3.25;;;;;;;43.73;17.62;98517.06;5075548;28;42356;-85
2023/10/13 13:37:27;;;;;;;3.28;2.90;;;;;;;43.64;17.81;98506.69;5089482;28;40894;-86
2023/10/13 13:39:54;;;;;;;5.40;3.40;;;;;;;43.69;18.00;98489.78;5074928;28;41791;-85
2023/10/13 13:42:22;;;;;;;3.28;2.97;;;;;;;43.80;17.83;98495.09;5092007;28;42308;-85
2023/10/13 13:44:50;;;;;;;4.60;3.03;;;;;;;43.67;17.87;98466.97;5075131;28;43554;-85
2023/10/13 13:47:17;;;;;;;6.85;3.20;;;;;;;43.68;17.95;98471.41;5126216;27;40556;-85
2023/10/13 13:49:51;;;;;;;6.22;3.33;;;;;;;43.58;17.48;98466.13;5074987;28;42292;-84
2023/10/13 13:52:21;;;;;;;4.35;2.97;;;;;;;43.32;17.48;98481.84;5090436;28;43151;-85
2023/10/13 13:54:50;;;;;;;4.82;2.70;;;;;;;42.60;18.03;98468.00;5075218;28;41096;-85
2023/10/13 13:57:18;;;;;;;4.63;3.03;;;;;;;41.71;18.54;98456.53;5074850;28;39756;-86
2023/10/13 13:59:45;;;;;;;3.80;3.50;;;;;;;41.36;19.13;98456.06;5075293;28;42260;-86
2023/10/13 14:02:20;;;;;;;5.22;3.10;;;;;;;41.42;19.63;98443.69;5092746;28;43889;-86
2023/10/13 14:04:50;;;;;;;4.25;3.28;;;;;;;41.42;19.01;98432.59;5091730;28;41462;-86
2023/10/13 14:07:19;;;;;;;4.15;2.90;;;;;;;41.39;19.29;98449.91;5074963;28;39126;-85
2023/10/13 14:09:51;;;;;;;3.70;3.28;;;;;;;41.21;19.01;98448.81;5092763;28;42012;-85
2023/10/13 14:12:29;;;;;;;3.45;3.10;;;;;;;41.11;19.51;98445.38;5089360;28;43693;-85
2023/10/13 14:14:57;;;;;;;4.13;3.13;;;;;;;40.87;19.48;98421.34;5093039;28;42707;-85
2023/10/13 14:17:28;;;;;;;5.13;3.00;;;;;;;40.67;19.31;98431.94;5092548;28;38979;-85
2023/10/13 14:19:57;;;;;;;5.22;3.35;;;;;;;40.07;19.59;98424.16;5089677;28;42696;-85
2023/10/13 14:22:26;;;;;;;3.60;3.00;;;;;;;39.60;20.24;98424.19;5092504;28;43806;-84
2023/10/13 14:24:55;;;;;;;3.72;2.80;;;;;;;38.42;21.21;98382.03;5093719;28;42778;-85
2023/10/13 14:27:25;;;;;;;4.97;3.20;;;;;;;37.31;21.40;98403.53;5075301;28;40360;-84
2023/10/13 14:29:54;;;;;;;5.50;3.42;;;;;;;36.45;22.02;98394.44;5090690;28;40681;-84
2023/10/13 14:32:24;;;;;;;4.63;2.97;;;;;;;35.92;22.78;98393.75;5074577;28;43251;-84
2023/10/13 14:34:56;;;;;;;4.05;3.65;;;;;;;35.18;23.15;98389.22;5091645;28;41465;-84
2023/10/13 14:37:29;;;;;;;4.80;3.33;;;;;;;34.63;23.71;98397.84;5091319;28;39309;-85
2023/10/13 14:39:57;;;;;;;4.47;3.30;;;;;;;33.98;24.07;98390.63;5074624;28;41732;-85
2023/10/13 14:42:28;;;;;;;4.07;2.43;;;;;;;33.61;24.86;98378.63;5073738;28;42000;-84
2023/10/13 14:44:58;;;;;;;4.40;3.17;;;;;;;33.27;25.06;98383.34;5125518;27;41659;-83
2023/10/13 14:47:26;;;;;;;3.57;2.97;;;;;;;32.91;24.96;98360.03;5125573;27;40931;-85
2023/10/13 14:49:59;;;;;;;4.40;2.87;;;;;;;32.78;25.39;98369.44;5090986;28;41155;-84
2023/10/13 14:52:31;;;;;;;4.87;3.00;;;;;;;32.38;25.47;98359.47;5108020;28;42118;-85
2023/10/13 14:54:59;;;;;;;3.73;3.17;;;;;;;32.11;26.14;98352.91;5090949;28;41778;-85
2023/10/13 14:57:28;;;;;;;8.03;3.10;;;;;;;31.69;26.33;98338.69;5090782;28;39614;-84
2023/10/13 14:59:57;;;;;;;3.70;3.07;;;;;;;31.16;26.53;98289.72;5091019;28;42551;-84
2023/10/13 15:02:24;;;;;;;4.67;3.30;;;;;;;31.18;27.23;98325.84;5073882;28;42331;-84
2023/10/13 15:04:52;;;;;;;5.00;2.87;;;;;;;30.90;27.31;98301.97;5090898;28;42474;-84
2023/10/13 15:07:22;;;;;;;4.70;3.03;;;;;;;30.84;27.67;98325.63;5090753;28;40811;-84
2023/10/13 15:09:49;;;;;;;5.60;2.70;;;;;;;30.64;29.06;98298.66;5073447;28;41157;-84
2023/10/13 15:12:18;;;;;;;5.20;3.30;;;;;;;30.60;28.44;98321.22;5091085;28;42268;-84
2023/10/13 15:14:49;;;;;;;4.17;2.57;;;;;;;30.39;28.55;98317.16;5108794;28;42507;-84
2023/10/13 15:17:17;;;;;;;4.83;3.33;;;;;;;30.06;28.95;98309.47;5075081;28;40605;-84
2023/10/13 15:19:44;;;;;;;4.47;2.73;;;;;;;29.87;29.11;98302.41;5125848;27;42541;-84
2023/10/13 15:22:21;;;;;;;4.33;2.93;;;;;;;29.72;29.00;98312.91;5074896;28;42311;-84
2023/10/13 15:25:01;;;;;;;6.53;3.00;;;;;;;29.39;29.46;98300.56;5108585;27;41654;-84
2023/10/13 15:27:28;;;;;;;4.70;2.90;;;;;;;29.15;29.70;98293.28;5074858;28;39418;-84
2023/10/13 15:29:59;;;;;;;4.30;2.40;;;;;;;29.02;30.43;98296.16;5073818;28;42642;-84
2023/10/13 15:32:44;;;;;;;3.87;2.67;;;;;;;28.81;30.79;98298.25;5072772;28;43053;-83
2023/10/13 15:35:13;;;;;;;5.50;2.77;;;;;;;28.60;30.95;98301.38;5088656;28;42964;-83
2023/10/13 15:37:41;;;;;;;3.73;3.20;;;;;;;28.43;31.17;98292.97;5092426;28;38864;-83
2023/10/13 15:40:15;;;;;;;2.73;2.47;;;;;;;28.19;30.94;98272.00;5092863;28;40629;-84
2023/10/13 15:42:42;;;;;;;3.53;2.70;;;;;;;28.05;31.50;98274.00;5073619;28;43042;-84
2023/10/13 15:45:17;;;;;;;4.10;2.70;;;;;;;27.98;31.38;98280.53;5090299;28;42051;-83
2023/10/13 15:47:45;;;;;;;4.93;2.83;;;;;;;27.86;31.32;98277.69;5089793;28;39900;-84
2023/10/13 15:50:18;;;;;;;4.60;2.73;;;;;;;27.75;31.51;98275.69;5124312;27;42774;-83
2023/10/13 15:52:46;;;;;;;3.73;2.50;;;;;;;27.70;31.51;98275.50;5089247;28;44152;-84
2023/10/13 15:55:17;;;;;;;3.53;2.80;;;;;;;27.35;31.70;98221.50;5089777;28;43541;-84
2023/10/13 15:57:45;;;;;;;3.93;2.90;;;;;;;27.48;31.86;98245.03;5090450;28;39844;-83
2023/10/13 16:02:57;;;;;;;4.17;2.80;;;;;;;27.36;32.06;98246.78;5072392;28;42752;-84
2023/10/13 16:05:34;;;;;;;3.93;2.70;;;;;;;27.17;32.02;98224.94;5124455;27;43476;-84
2023/10/13 16:08:03;;;;;;;3.83;2.80;;;;;;;27.08;32.61;98225.38;5090001;28;40151;-84
2023/10/13 16:10:30;;;;;;;4.57;2.80;;;;;;;26.96;32.31;98216.25;5090028;28;42381;-83
2023/10/13 16:12:58;;;;;;;4.33;2.43;;;;;;;26.93;32.43;98217.53;5090723;28;43840;-83
2023/10/13 16:15:28;;;;;;;5.73;2.60;;;;;;;26.95;32.09;98234.47;5090984;28;41697;-83
2023/10/13 16:17:55;;;;;;;3.13;2.60;;;;;;;26.87;32.33;98240.09;5090667;28;40599;-83
2023/10/13 16:20:24;;;;;;;4.53;2.50;;;;;;;26.82;32.35;98238.03;5073657;28;40559;-83
2023/10/13 16:22:52;;;;;;;4.73;2.23;;;;;;;26.75;32.68;98239.94;5108192;28;42066;-83
2023/10/13 16:25:21;;;;;;;3.10;2.30;;;;;;;26.57;32.87;98222.66;5092131;28;42101;-84
2023/10/13 16:27:49;;;;;;;3.63;2.57;;;;;;;26.47;33.32;98223.91;5090987;28;40174;-84
2023/10/13 16:30:19;;;;;;;5.07;2.50;;;;;;;26.45;33.46;98225.19;5091171;28;41986;-83
2023/10/13 16:32:49;;;;;;;3.73;2.10;;;;;;;26.36;33.41;98230.00;5073613;28;42900;-84
2023/10/13 16:35:18;;;;;;;3.10;2.40;;;;;;;26.18;33.36;98207.25;5090227;28;42275;-83
2023/10/13 16:37:46;;;;;;;5.33;2.47;;;;;;;26.17;33.85;98214.56;5106276;28;39154;-83
2023/10/13 16:40:19;;;;;;;3.83;2.40;;;;;;;25.99;33.86;98209.75;5091174;28;41576;-83
2023/10/13 16:42:47;;;;;;;4.13;2.53;;;;;;;25.93;33.70;98210.59;5074681;28;42142;-83
2023/10/13 16:45:21;;;;;;;3.00;2.40;;;;;;;25.78;34.33;98201.84;5094104;28;42258;-84
2023/10/13 16:47:53;;;;;;;3.83;2.53;;;;;;;25.75;34.47;98213.09;5077376;28;38926;-84
2023/10/13 16:50:21;;;;;;;4.00;2.90;;;;;;;25.57;35.74;98193.88;5094128;28;40860;-83
2023/10/13 16:52:49;;;;;;;3.87;2.60;;;;;;;25.43;35.42;98182.19;5076555;28;41778;-84
2023/10/13 16:55:19;;;;;;;6.80;2.53;;;;;;;25.40;35.46;98198.84;5093589;28;41255;-83
2023/10/13 16:57:50;;;;;;;2.93;2.47;;;;;;;25.23;35.28;98203.81;5093761;28;39151;-83
2023/10/13 17:00:18;;;;;;;5.23;2.30;;;;;;;25.00;35.90;98197.91;5093643;28;40849;-84
2023/10/13 17:02:46;;;;;;;4.40;2.70;;;;;;;24.92;35.81;98211.63;5076310;28;41654;-83
2023/10/13 17:05:17;;;;;;;3.20;1.87;;;;;;;24.72;36.18;98184.47;5110619;28;41281;-83
2023/10/13 17:07:46;;;;;;;2.87;2.27;;;;;;;24.61;36.35;98176.88;5092458;28;40895;-84
2023/10/13 17:10:15;;;;;;;4.53;2.67;;;;;;;24.51;36.44;98188.09;5076342;28;41144;-84
2023/10/13 17:12:42;;;;;;;4.50;2.90;;;;;;;24.43;36.62;98185.56;5077147;28;42331;-83
2023/10/13 17:15:19;;;;;;;3.17;2.40;;;;;;;24.25;36.71;98174.41;5094805;28;42164;-84
2023/10/13 17:17:47;;;;;;;2.47;2.27;;;;;;;24.13;37.04;98163.28;5112093;28;39347;-83
2023/10/13 17:20:17;;;;;;;7.37;2.63;;;;;;;23.95;37.42;98158.41;5077469;28;43442;-83
2023/10/13 17:22:46;;;;;;;4.23;2.20;;;;;;;23.86;37.76;98162.25;5077792;28;41676;-83
2023/10/13 17:25:13;;;;;;;3.37;2.23;;;;;;;23.81;37.52;98167.44;5094599;28;41679;-84
2023/10/13 17:27:41;;;;;;;3.10;2.30;;;;;;;23.69;38.13;98165.47;5128975;27;39888;-83
2023/10/13 17:30:10;;;;;;;6.17;2.73;;;;;;;23.47;38.59;98143.03;5094826;28;41522;-83
2023/10/13 17:32:38;;;;;;;4.27;2.87;;;;;;;23.38;39.33;98136.06;5111838;28;41937;-85
2023/10/13 17:35:07;;;;;;;4.33;2.63;;;;;;;23.35;39.21;98152.69;5095206;28;41263;-84
2023/10/13 17:37:37;;;;;;;5.43;2.60;;;;;;;23.27;38.81;98157.16;5094385;28;40222;-83
2023/10/13 17:40:07;;;;;;;3.27;2.53;;;;;;;23.18;39.05;98152.09;5127665;27;42136;-83
2023/10/13 17:42:35;;;;;;;3.07;2.43;;;;;;;23.05;39.93;98147.41;5109948;28;42633;-83
2023/10/13 17:45:02;;;;;;;4.53;2.77;;;;;;;22.87;39.85;98134.31;5093019;28;42059;-84
2023/10/13 17:47:31;;;;;;;4.70;2.40;;;;;;;22.82;39.75;98135.94;5092902;28;40234;-83
2023/10/13 17:50:00;;;;;;;4.37;2.60;;;;;;;22.69;39.92;98124.94;5075874;28;41813;-84
2023/10/13 17:52:27;;;;;;;4.53;2.73;;;;;;;22.64;39.79;98138.16;5058744;28;42966;-84
2023/10/13 17:54:56;;;;;;;3.07;2.23;;;;;;;22.60;40.57;98142.28;5092088;28;42223;-83
2023/10/13 17:57:24;;;;;;;3.93;2.50;;;;;;;22.39;40.60;98114.22;5109448;28;39328;-84
2023/10/13 17:59:53;;;;;;;3.67;2.73;;;;;;;22.37;40.83;98129.78;5092332;28;41299;-84
2023/10/13 18:02:21;;;;;;;3.30;2.67;;;;;;;22.32;40.95;98134.06;5075590;28;41645;-83
2023/10/13 18:04:48;;;;;;;3.00;2.33;;;;;;;22.23;41.20;98119.84;5092597;28;41311;-83
2023/10/13 18:07:17;;;;;;;3.77;2.60;;;;;;;22.14;41.33;98123.63;5093516;28;39741;-84
2023/10/13 18:09:45;;;;;;;4.70;2.77;;;;;;;21.95;41.57;98102.59;5092326;28;40849;-83
2023/10/13 18:12:15;;;;;;;3.30;2.57;;;;;;;21.92;41.35;98111.91;5092591;28;41993;-83
2023/10/13 18:14:43;;;;;;;4.20;2.67;;;;;;;21.86;41.90;98110.78;5093371;28;41390;-84
2023/10/13 18:17:15;;;;;;;4.40;2.80;;;;;;;21.82;42.42;98111.34;5093414;28;39875;-84
2023/10/13 18:19:43;;;;;;;3.83;2.73;;;;;;;21.75;42.45;98097.78;5093841;28;40297;-83
2023/10/13 18:22:15;;;;;;;4.60;2.70;;;;;;;21.69;42.67;98111.13;5092964;28;41941;-84
2023/10/13 18:24:43;;;;;;;3.30;2.33;;;;;;;21.62;42.39;98099.44;5075994;28;42077;-83
2023/10/13 18:27:12;;;;;;;2.80;2.27;;;;;;;21.57;42.49;98097.28;5092141;28;38677;-83
2023/10/13 18:29:40;;;;;;;2.93;2.27;;;;;;;21.57;42.72;98101.84;5093294;28;41768;-84
2023/10/13 18:32:08;;;;;;;3.20;2.67;;;;;;;21.46;42.80;98085.09;5092026;28;41503;-85
2023/10/13 18:34:37;;;;;;;3.13;2.40;;;;;;;21.38;42.96;98073.56;5075338;28;41341;-84
2023/10/13 18:37:09;;;;;;;4.23;2.47;;;;;;;21.38;43.66;98066.34;5092071;28;39144;-84
2023/10/13 18:39:40;;;;;;;6.10;3.07;;;;;;;21.47;43.88;98088.63;5092406;28;41767;-84
2023/10/13 18:42:08;;;;;;;3.37;2.47;;;;;;;21.46;44.34;98084.25;5090416;28;42811;-83
2023/10/13 18:44:37;;;;;;;5.57;2.83;;;;;;;21.41;43.88;98070.50;5092167;28;40905;-84
2023/10/13 18:47:08;;;;;;;3.70;2.87;;;;;;;21.47;43.65;98069.78;5091575;28;39901;-84
2023/10/13 18:49:37;;;;;;;6.17;3.00;;;;;;;21.50;43.84;98070.25;5092169;28;41274;-85
2023/10/13 18:52:05;;;;;;;4.50;3.07;;;;;;;21.52;44.26;98064.66;5091524;28;41868;-84
2023/10/13 18:54:34;;;;;;;4.43;2.90;;;;;;;21.46;43.91;98062.72;5091571;28;41107;-84
2023/10/13 18:57:03;;;;;;;4.40;2.77;;;;;;;21.23;43.95;98014.31;5095402;28;40424;-85
2023/10/13 18:59:33;;;;;;;6.00;2.80;;;;;;;21.45;44.16;98055.66;5105511;28;40307;-84
2023/10/13 19:02:02;;;;;;;6.57;3.30;;;;;;;21.56;44.82;98068.66;5099121;28;44112;-82
2023/10/13 19:04:32;;;;;;;10.83;3.43;;;;;;;21.56;44.98;98057.88;5091766;28;40791;-83
2023/10/13 19:07:00;;;;;;;4.77;3.13;;;;;;;21.61;44.88;98060.88;5092639;28;40231;-83
2023/10/13 19:09:28;;;;;;;4.80;2.80;;;;;;;21.65;44.44;98064.84;5094369;28;41481;-84
2023/10/13 19:11:56;;;;;;;3.93;2.57;;;;;;;21.63;44.94;98045.38;5096189;28;43868;-83
2023/10/13 19:14:24;;;;;;;5.30;3.27;;;;;;;21.69;44.95;98068.88;5092459;28;42364;-83
2023/10/13 19:16:52;;;;;;;6.70;3.00;;;;;;;21.65;44.78;98054.06;5093752;28;39922;-84
2023/10/13 19:19:24;;;;;;;4.27;2.80;;;;;;;21.72;45.08;98052.31;5093387;28;42642;-83
2023/10/13 19:21:51;;;;;;;6.80;2.80;;;;;;;21.74;44.73;98044.91;5091911;28;41869;-84
2023/10/13 19:24:19;;;;;;;4.10;3.03;;;;;;;21.77;45.40;98033.72;5092278;28;42093;-83
2023/10/13 19:26:47;;;;;;;4.43;2.80;;;;;;;21.60;44.90;97999.91;5092203;28;39460;-83
2023/10/13 19:29:17;;;;;;;5.00;2.77;;;;;;;21.71;44.87;98006.69;5093127;28;41916;-83
2023/10/13 19:31:45;;;;;;;4.30;3.10;;;;;;;21.59;45.22;97987.47;5090372;28;42869;-83
2023/10/13 19:34:17;;;;;;;5.10;3.10;;;;;;;21.83;44.72;98022.22;5091872;28;42433;-83
2023/10/13 19:36:46;;;;;;;5.43;2.77;;;;;;;21.84;44.91;98018.50;5092303;28;39136;-83
2023/10/13 19:39:18;;;;;;;6.17;2.90;;;;;;;21.74;45.37;98001.78;5091811;28;40974;-82
2023/10/13 19:41:47;;;;;;;3.17;2.33;;;;;;;21.80;45.39;98014.50;5091121;28;41822;-83
2023/10/13 19:44:15;;;;;;;6.03;3.57;;;;;;;21.57;45.04;97984.13;5090749;28;41606;-83
2023/10/13 19:46:43;;;;;;;5.17;3.10;;;;;;;21.76;45.31;98018.56;5091155;28;38844;-84
2023/10/13 19:49:12;;;;;;;4.37;2.70;;;;;;;21.51;45.33;97979.50;5090690;28;41052;-84
2023/10/13 19:51:43;;;;;;;3.53;2.43;;;;;;;21.75;44.43;98006.16;5090632;28;42675;-84
2023/10/13 19:54:15;;;;;;;4.77;2.83;;;;;;;21.67;44.57;97995.44;5090757;28;41326;-84
2023/10/13 19:56:42;;;;;;;4.07;2.80;;;;;;;21.69;44.50;98001.50;5090910;28;39967;-85
2023/10/13 19:59:11;;;;;;;5.20;2.90;;;;;;;21.70;43.89;97999.63;5091768;28;42114;-83
2023/10/13 20:01:42;;;;;;;7.00;3.00;;;;;;;21.73;43.84;97994.72;5090739;28;42056;-83
2023/10/13 20:04:12;;;;;;;5.63;3.23;;;;;;;21.84;43.39;98015.78;5090890;28;42413;-84
2023/10/13 20:06:40;;;;;;;5.23;2.83;;;;;;;21.90;43.07;98018.75;5073914;28;39803;-84
2023/10/13 20:09:22;;;;;;;5.70;2.80;;;;;;;21.83;42.88;98006.03;5073115;28;41030;-83
2023/10/13 20:11:51;;;;;;;5.30;2.50;;;;;;;21.86;42.57;98005.66;5090542;28;42720;-83
2023/10/13 20:14:21;;;;;;;4.10;2.33;;;;;;;21.88;42.23;98008.97;5074502;28;41169;-84
2023/10/13 20:16:48;;;;;;;4.17;2.30;;;;;;;21.91;41.93;98007.78;5091432;28;39087;-85
2023/10/13 20:19:16;;;;;;;4.97;2.50;;;;;;;22.05;41.67;98020.44;5091381;28;40794;-84
2023/10/13 20:21:45;;;;;;;4.30;2.70;;;;;;;22.10;41.18;98017.19;5091108;28;43014;-84
2023/10/13 20:24:13;;;;;;;3.47;2.30;;;;;;;22.06;41.27;98005.94;5074108;28;41356;-84
2023/10/13 20:26:42;;;;;;;3.93;2.50;;;;;;;22.16;41.20;98005.63;5074700;28;38983;-83
2023/10/13 20:29:15;;;;;;;5.60;2.70;;;;;;;22.19;41.00;98016.03;5091123;28;42675;-83
2023/10/13 20:31:44;;;;;;;3.60;2.33;;;;;;;22.21;40.63;98008.59;5075125;28;42010;-83
2023/10/13 20:34:13;;;;;;;3.47;2.50;;;;;;;22.25;40.55;98009.91;5074566;28;41936;-84
2023/10/13 20:36:41;;;;;;;4.70;2.17;;;;;;;22.30;40.51;98014.72;5108519;28;38869;-83
2023/10/13 20:39:23;;;;;;;6.00;2.47;;;;;;;22.27;39.83;98018.63;5090535;28;41578;-82
2023/10/13 20:41:50;;;;;;;4.73;2.40;;;;;;;22.18;40.32;98003.56;5073178;28;42775;-84
2023/10/13 20:44:25;;;;;;;4.33;2.40;;;;;;;22.15;40.17;97993.16;5090620;28;43204;-83
2023/10/13 20:46:52;;;;;;;3.57;2.40;;;;;;;22.25;39.88;98009.91;5073600;28;39010;-83